• Join FlightAware (Why Join?)
  • Login
  • US Flag 
06:33AM EST


 

Airport Tracker/Info


-or-


 

Live Flight TrackerFlight Track Log ✈ EGF3229 ✈ 01-Apr-2013 ✈ KMSN - KDFW

Flight Track Log - Related Links

Times and Time Zones

All times are in EDT time to prevent confusion due to time zone crossing. See the EGF3229 flight status page for this flight to view local times or setup timezone preferences in your user account.

Time Position Orientation Groundspeed Altitude Reporting Facility
EDT Latitude Longitude Course Direction KTS MPH feet Rate Location/Type
01:32PM 42.9498 -89.4368 204° Southwest  Level FlightAware Approximate
01:32PM 43.1744 -89.4097 209° Southwest 193 222 4,100  Level Chicago Center
01:33PM 42.8633 -89.5017 200° South  Level FlightAware Approximate
01:33PM 43.1689 -89.5033 265° West 207 238 6,900  Level Chicago Center
01:34PM 42.7700 -89.5483 200° South  Level FlightAware Approximate
01:34PM 43.1089 -89.5536 211° Southwest 250 288 9,100  Level Chicago Center
01:35PM 42.6807 -89.6074 206° Southwest  Level FlightAware Approximate
01:35PM 43.0361 -89.5933 202° Southwest 273 314 10,800  Level Chicago Center
01:36PM 42.5904 -89.6631 200° South  Level FlightAware Approximate
01:36PM 42.9528 -89.6386 202° Southwest 315 362 12,200  Level Chicago Center
01:37PM 42.4937 -89.7173 209° Southwest  Level FlightAware Approximate
01:37PM 42.8686 -89.6856 202° Southwest 326 375 13,900  Level Chicago Center
01:38PM 42.7817 -89.7342 202° Southwest 334 384 15,600 1,800 Climbing Chicago Center
01:39PM 42.6800 -89.7900 202° Southwest 336 387 17,700 1,740 Climbing Chicago Center
01:40PM 42.5936 -89.8392 203° Southwest 337 388 19,200 1,500 Climbing Chicago Center
01:41PM 42.5053 -89.8858 201° Southwest 338 389 20,900 1,620 Climbing Chicago Center
01:42PM 42.4128 -89.9383 203° Southwest 341 392 22,600 1,020 Climbing Chicago Center
01:43PM 42.3211 -89.9883 202° Southwest 358 412 23,100 720 Climbing Chicago Center
01:44PM 42.2233 -90.0414 202° Southwest 378 435 24,100 1,020 Climbing Chicago Center
01:45PM 42.1256 -90.0939 202° Southwest 379 436 25,200 1,200 Climbing Chicago Center
01:46PM 42.0272 -90.1458 201° Southwest 380 437 26,600 1,380 Climbing Chicago Center
01:47PM 41.9131 -90.2075 202° Southwest 374 430 28,100 1,320 Climbing Chicago Center
01:48PM 41.8192 -90.2567 201° Southwest 368 423 29,400 1,200 Climbing Chicago Center
01:49PM 41.7264 -90.3092 203° Southwest 365 420 30,700 1,260 Climbing Chicago Center
01:50PM 41.6336 -90.3569 201° Southwest 359 413 32,100 1,260 Climbing Chicago Center
01:51PM 41.5433 -90.4053 202° Southwest 352 405 33,400 900 Climbing Chicago Center
01:52PM 41.4553 -90.4500 201° Southwest 342 394 34,000 240 Climbing Chicago Center
01:53PM 41.3397 -90.5111 202° Southwest 370 426 34,000  Level Chicago Center
01:54PM 41.2331 -90.5694 202° Southwest 409 471 34,000 240 Level Chicago Center
01:55PM 41.1253 -90.6256 201° Southwest 418 481 34,500 720 Climbing Chicago Center
01:56PM 41.0206 -90.6786 201° Southwest 406 467 35,500 720 Climbing Chicago Center
01:57PM 40.9169 -90.7342 202° Southwest 404 465 36,000 240 Climbing Chicago Center
01:58PM 40.8125 -90.7883 201° Southwest 406 467 36,000  Level Chicago Center
01:59PM 40.6928 -90.8736 208° Southwest 408 470 36,000  Level Chicago Center
02:00PM 40.5931 -90.9433 208° Southwest 407 468 36,000  Level Chicago Center
02:01PM 40.4944 -91.0114 208° Southwest 403 464 36,000  Level Chicago Center
02:02PM 40.3956 -91.0797 208° Southwest 403 464 36,000  Level Chicago Center
02:03PM 40.3344 -91.1208 207° Southwest 401 461 36,000  Level Kansas City Center
02:04PM 40.2386 -91.1864 208° Southwest 403 464 36,000  Level Kansas City Center
02:05PM 40.1206 -91.2689 208° Southwest 404 465 36,000  Level Kansas City Center
02:06PM 40.0200 -91.3364 207° Southwest 406 467 36,000  Level Kansas City Center
02:07PM 39.9208 -91.4058 208° Southwest 406 467 36,000  Level Kansas City Center
02:08PM 39.8217 -91.4722 207° Southwest 404 465 36,000  Level Kansas City Center
02:09PM 39.7203 -91.5411 208° Southwest 408 470 36,000  Level Kansas City Center
02:10PM 39.6200 -91.6086 207° Southwest 407 468 36,000  Level Kansas City Center
02:11PM 39.4997 -91.6875 207° Southwest 406 467 36,000  Level Kansas City Center
02:12PM 39.3975 -91.7564 208° Southwest 410 472 36,000  Level Kansas City Center
02:13PM 39.2972 -91.8239 208° Southwest 410 472 36,000  Level Kansas City Center
02:14PM 39.2022 -91.8861 207° Southwest 406 467 36,000  Level Kansas City Center
02:15PM 39.1003 -91.9533 207° Southwest 408 470 36,000  Level Kansas City Center
02:16PM 38.9775 -92.0353 207° Southwest 411 473 36,000  Level Kansas City Center
02:17PM 38.8750 -92.1025 207° Southwest 412 474 36,000  Level Kansas City Center
02:19PM 38.7731 -92.1706 207° Southwest 411 473 36,000  Level Kansas City Center
02:20PM 38.6706 -92.2375 207° Southwest 412 474 36,000  Level Kansas City Center
02:21PM 38.5714 -92.3083 209° Southwest 409 471 36,000  Level Kansas City Center
02:22PM 38.4761 -92.3867 213° Southwest 407 468 36,000  Level Kansas City Center
02:23PM 38.3803 -92.4636 212° Southwest 406 467 36,000  Level Kansas City Center
02:24PM 38.2644 -92.5561 212° Southwest 408 470 36,000  Level Kansas City Center
02:25PM 38.1667 -92.6347 212° Southwest 412 474 36,000  Level Kansas City Center
02:26PM 38.0708 -92.7119 212° Southwest 411 473 36,000  Level Kansas City Center
02:27PM 37.9758 -92.7872 212° Southwest 411 473 36,000  Level Kansas City Center
02:28PM 37.8794 -92.8628 212° Southwest 409 471 36,000  Level Kansas City Center
02:29PM 37.7828 -92.9406 212° Southwest 411 473 36,000  Level Kansas City Center
02:30PM 37.6658 -93.0311 212° Southwest 410 472 36,000  Level Kansas City Center
02:31PM 37.5692 -93.1069 212° Southwest 409 471 36,000  Level Kansas City Center
02:32PM 37.4708 -93.1831 212° Southwest 411 473 36,000  Level Kansas City Center
02:33PM 37.3750 -93.2603 213° Southwest 411 473 36,000  Level Kansas City Center
02:34PM 37.2764 -93.3364 212° Southwest 412 474 36,000  Level Kansas City Center
02:35PM 37.1753 -93.4092 210° Southwest 414 476 36,000  Level Kansas City Center
02:36PM 37.0792 -93.4864 213° Southwest 413 475 36,000  Level Kansas City Center
02:37PM 36.9819 -93.5642 213° Southwest 412 474 36,000  Level Kansas City Center
02:38PM 36.8664 -93.6489 210° Southwest 415 478 36,000  Level Kansas City Center
02:39PM 36.7658 -93.7256 211° Southwest 422 486 36,000  Level Kansas City Center
02:40PM 36.6600 -93.8061 211° Southwest 420 483 36,000  Level Kansas City Center
02:41PM 36.5911 -93.8561 210° Southwest 432 497 36,000  Level Memphis Center
02:41PM 36.5600 -93.8828 215° Southwest 421 484 36,000  Level Kansas City Center
02:42PM 36.4592 -93.9594 211° Southwest 421 484 36,000  Level Kansas City Center
02:43PM 36.3594 -94.0347 211° Southwest 419 482 36,000  Level Kansas City Center
02:44PM 36.2947 -94.0856 212° Southwest 427 491 36,000  Level Memphis Center
02:45PM 36.1886 -94.1500 206° Southwest 427 491 36,000  Level Memphis Center
02:46PM 36.0767 -94.1989 199° South 427 491 36,000  Level Memphis Center
02:47PM 35.9622 -94.2525 201° Southwest 432 497 36,000  Level Memphis Center
02:48PM 35.8522 -94.3036 201° Southwest 437 503 36,000  Level Memphis Center
02:49PM 35.7381 -94.3569 201° Southwest 437 503 36,000  Level Memphis Center
02:50PM 35.6258 -94.4078 200° South 437 503 36,000  Level Memphis Center
02:51PM 35.5158 -94.4561 200° South 432 497 36,000  Level Memphis Center
02:52PM 35.4036 -94.5064 200° South 432 497 36,000  Level Memphis Center
02:53PM 35.2853 -94.5539 198° South 432 497 36,000  Level Memphis Center
02:55PM 35.0964 -94.6450 202° Southwest 421 484 36,000  Level Fort Worth Center
02:56PM 34.9953 -94.7042 206° Southwest 421 484 36,000  Level Fort Worth Center
02:57PM 34.9117 -94.7931 221° Southwest 403 464 36,000  Level Fort Worth Center
02:58PM 34.8281 -94.8814 221° Southwest 403 464 36,000  Level Fort Worth Center
02:59PM 34.7483 -94.9672 222° Southwest 398 458 36,000  Level Fort Worth Center
03:00PM 34.6667 -95.0528 221° Southwest 398 458 36,000  Level Fort Worth Center
03:01PM 34.5847 -95.1408 222° Southwest 398 458 36,000  Level Fort Worth Center
03:02PM 34.4844 -95.2469 221° Southwest 403 464 36,000  Level Fort Worth Center
03:03PM 34.4025 -95.3344 221° Southwest 398 458 36,000 -300 Level Fort Worth Center
03:04PM 34.3183 -95.4219 221° Southwest 398 458 35,500 -1,020 Descending Fort Worth Center
03:05PM 34.2361 -95.5094 221° Southwest 398 458 34,000 -1,560 Descending Fort Worth Center
03:06PM 34.1519 -95.5914 219° Southwest 398 458 32,400 -1,680 Descending Fort Worth Center
03:07PM 34.0717 -95.6708 219° Southwest 398 458 30,700 -2,160 Descending Fort Worth Center
03:08PM 33.9850 -95.7503 217° Southwest 391 450 28,100 -2,700 Descending Fort Worth Center
03:09PM 33.8944 -95.8394 219° Southwest 413 475 25,300 -2,700 Descending Fort Worth Center
03:10PM 33.7994 -95.9289 218° Southwest 425 489 22,800 -2,820 Descending Fort Worth Center
03:11PM 33.7086 -96.0178 219° Southwest 425 489 19,700 -2,820 Descending Fort Worth Center
03:12PM 33.6239 -96.0989 219° Southwest 410 472 17,200 -2,880 Descending Fort Worth Center
03:13PM 33.5453 -96.1747 219° Southwest 384 442 14,000 -2,700 Descending Fort Worth Center
03:14PM 33.4647 -96.2531 219° Southwest 379 436 11,800 -1,500 Descending Fort Worth Center
03:15PM 33.3922 -96.3336 223° Southwest 361 415 11,000 -420 Descending Fort Worth Center
03:16PM 33.3472 -96.4139 236° Southwest 316 364 11,000 -600 Level Fort Worth Center
03:17PM 33.3164 -96.4961 246° West 276 318 9,900 -1,500 Descending Fort Worth Center
03:18PM 33.2836 -96.5761 244° Southwest 276 318 8,100 -1,980 Descending Fort Worth Center
03:19PM 33.2508 -96.6583 245° Southwest 276 318 6,000 -1,560 Descending Fort Worth Center
03:20PM 33.2178 -96.7381 244° Southwest 276 318 5,000 -540 Descending Fort Worth Center
03:21PM 33.1742 -96.8078 233° Southwest 276 318 5,000  Level Fort Worth Center
03:22PM 33.1286 -96.8775 232° Southwest 276 318 5,000  Level Fort Worth Center